sensor_id;sensor_type;location;lat;lon;timestamp;P1;durP1;ratioP1;P2;durP2;ratioP2
2610;SDS011;5612;51.134;17.058;2023-04-06T00:01:02;57.73;;;43.10;;
2610;SDS011;5612;51.134;17.058;2023-04-06T00:03:31;57.33;;;42.13;;
2610;SDS011;5612;51.134;17.058;2023-04-06T00:06:00;58.57;;;43.17;;
2610;SDS011;5612;51.134;17.058;2023-04-06T00:08:29;64.40;;;49.50;;
2610;SDS011;5612;51.134;17.058;2023-04-06T00:10:58;62.70;;;50.30;;
2610;SDS011;5612;51.134;17.058;2023-04-06T00:13:27;62.37;;;43.93;;
2610;SDS011;5612;51.134;17.058;2023-04-06T00:15:57;61.53;;;42.30;;
2610;SDS011;5612;51.134;17.058;2023-04-06T00:18:26;63.27;;;43.10;;
2610;SDS011;5612;51.134;17.058;2023-04-06T00:20:54;54.40;;;44.80;;
2610;SDS011;5612;51.134;17.058;2023-04-06T00:23:23;63.27;;;51.10;;
2610;SDS011;5612;51.134;17.058;2023-04-06T00:25:51;66.13;;;43.50;;
2610;SDS011;5612;51.134;17.058;2023-04-06T00:28:20;68.27;;;52.97;;
2610;SDS011;5612;51.134;17.058;2023-04-06T00:30:52;77.33;;;58.20;;
2610;SDS011;5612;51.134;17.058;2023-04-06T00:33:23;59.07;;;46.43;;
2610;SDS011;5612;51.134;17.058;2023-04-06T00:35:52;61.17;;;45.50;;
2610;SDS011;5612;51.134;17.058;2023-04-06T00:38:21;71.80;;;51.93;;
2610;SDS011;5612;51.134;17.058;2023-04-06T00:40:50;71.67;;;51.07;;
2610;SDS011;5612;51.134;17.058;2023-04-06T00:43:18;76.57;;;50.50;;
2610;SDS011;5612;51.134;17.058;2023-04-06T00:45:47;85.20;;;61.10;;
2610;SDS011;5612;51.134;17.058;2023-04-06T00:48:16;82.63;;;62.50;;
2610;SDS011;5612;51.134;17.058;2023-04-06T00:50:46;68.67;;;55.57;;
2610;SDS011;5612;51.134;17.058;2023-04-06T00:53:15;72.33;;;54.83;;
2610;SDS011;5612;51.134;17.058;2023-04-06T00:55:44;68.87;;;51.47;;
2610;SDS011;5612;51.134;17.058;2023-04-06T00:58:12;69.67;;;52.17;;
2610;SDS011;5612;51.134;17.058;2023-04-06T01:00:41;63.83;;;49.03;;
2610;SDS011;5612;51.134;17.058;2023-04-06T01:03:10;65.23;;;51.57;;
2610;SDS011;5612;51.134;17.058;2023-04-06T01:05:39;55.77;;;47.50;;
2610;SDS011;5612;51.134;17.058;2023-04-06T01:08:10;51.30;;;41.40;;
2610;SDS011;5612;51.134;17.058;2023-04-06T01:10:39;58.07;;;40.27;;
2610;SDS011;5612;51.134;17.058;2023-04-06T01:13:08;58.30;;;40.57;;
2610;SDS011;5612;51.134;17.058;2023-04-06T01:15:36;54.03;;;41.13;;
2610;SDS011;5612;51.134;17.058;2023-04-06T01:18:05;51.97;;;39.70;;
2610;SDS011;5612;51.134;17.058;2023-04-06T01:20:36;50.43;;;37.73;;
2610;SDS011;5612;51.134;17.058;2023-04-06T01:23:07;60.20;;;42.83;;
2610;SDS011;5612;51.134;17.058;2023-04-06T01:25:35;52.20;;;39.63;;
2610;SDS011;5612;51.134;17.058;2023-04-06T01:28:04;48.93;;;37.07;;
2610;SDS011;5612;51.134;17.058;2023-04-06T01:30:33;51.63;;;37.43;;
2610;SDS011;5612;51.134;17.058;2023-04-06T01:33:02;51.00;;;36.70;;
2610;SDS011;5612;51.134;17.058;2023-04-06T01:35:30;43.57;;;34.23;;
2610;SDS011;5612;51.134;17.058;2023-04-06T01:37:59;46.60;;;33.97;;
2610;SDS011;5612;51.134;17.058;2023-04-06T01:40:29;47.60;;;35.40;;
2610;SDS011;5612;51.134;17.058;2023-04-06T01:42:58;46.77;;;35.00;;
2610;SDS011;5612;51.134;17.058;2023-04-06T01:45:27;47.57;;;42.37;;
2610;SDS011;5612;51.134;17.058;2023-04-06T01:47:55;50.97;;;42.47;;
2610;SDS011;5612;51.134;17.058;2023-04-06T01:50:24;45.73;;;39.93;;
2610;SDS011;5612;51.134;17.058;2023-04-06T01:52:53;49.30;;;42.07;;
2610;SDS011;5612;51.134;17.058;2023-04-06T01:55:22;46.90;;;33.70;;
2610;SDS011;5612;51.134;17.058;2023-04-06T01:57:52;49.50;;;40.97;;
2610;SDS011;5612;51.134;17.058;2023-04-06T02:00:21;52.33;;;42.00;;
2610;SDS011;5612;51.134;17.058;2023-04-06T02:02:49;43.17;;;33.60;;
2610;SDS011;5612;51.134;17.058;2023-04-06T02:05:19;44.33;;;34.93;;
2610;SDS011;5612;51.134;17.058;2023-04-06T02:07:47;46.17;;;40.90;;
2610;SDS011;5612;51.134;17.058;2023-04-06T02:10:16;46.87;;;34.53;;
2610;SDS011;5612;51.134;17.058;2023-04-06T02:12:45;49.10;;;37.43;;
2610;SDS011;5612;51.134;17.058;2023-04-06T02:15:15;42.63;;;34.00;;
2610;SDS011;5612;51.134;17.058;2023-04-06T02:17:44;50.47;;;41.23;;
2610;SDS011;5612;51.134;17.058;2023-04-06T02:20:13;49.60;;;42.63;;
2610;SDS011;5612;51.134;17.058;2023-04-06T02:22:42;50.33;;;42.90;;
2610;SDS011;5612;51.134;17.058;2023-04-06T02:25:10;47.90;;;41.10;;
2610;SDS011;5612;51.134;17.058;2023-04-06T02:27:39;46.10;;;33.47;;
2610;SDS011;5612;51.134;17.058;2023-04-06T02:30:08;42.03;;;33.60;;
2610;SDS011;5612;51.134;17.058;2023-04-06T02:32:39;43.43;;;34.67;;
2610;SDS011;5612;51.134;17.058;2023-04-06T02:35:08;43.40;;;33.40;;
2610;SDS011;5612;51.134;17.058;2023-04-06T02:37:37;46.20;;;34.27;;
2610;SDS011;5612;51.134;17.058;2023-04-06T02:40:06;46.93;;;35.43;;
2610;SDS011;5612;51.134;17.058;2023-04-06T02:42:36;49.53;;;38.40;;
2610;SDS011;5612;51.134;17.058;2023-04-06T02:45:05;51.97;;;39.57;;
2610;SDS011;5612;51.134;17.058;2023-04-06T02:47:34;55.57;;;40.57;;
2610;SDS011;5612;51.134;17.058;2023-04-06T02:50:05;57.07;;;40.67;;
2610;SDS011;5612;51.134;17.058;2023-04-06T02:52:34;51.27;;;39.77;;
2610;SDS011;5612;51.134;17.058;2023-04-06T02:55:02;55.70;;;40.80;;
2610;SDS011;5612;51.134;17.058;2023-04-06T02:57:34;56.13;;;39.10;;
2610;SDS011;5612;51.134;17.058;2023-04-06T03:00:03;53.23;;;41.83;;
2610;SDS011;5612;51.134;17.058;2023-04-06T03:02:33;49.77;;;38.53;;
2610;SDS011;5612;51.134;17.058;2023-04-06T03:05:02;53.47;;;41.10;;
2610;SDS011;5612;51.134;17.058;2023-04-06T03:07:33;57.20;;;43.40;;
2610;SDS011;5612;51.134;17.058;2023-04-06T03:10:01;53.27;;;40.30;;
2610;SDS011;5612;51.134;17.058;2023-04-06T03:12:30;50.97;;;39.50;;
2610;SDS011;5612;51.134;17.058;2023-04-06T03:14:59;57.33;;;41.00;;
2610;SDS011;5612;51.134;17.058;2023-04-06T03:17:28;54.50;;;41.07;;
2610;SDS011;5612;51.134;17.058;2023-04-06T03:19:56;59.87;;;46.87;;
2610;SDS011;5612;51.134;17.058;2023-04-06T03:22:26;62.83;;;48.30;;
2610;SDS011;5612;51.134;17.058;2023-04-06T03:24:56;53.53;;;39.23;;
2610;SDS011;5612;51.134;17.058;2023-04-06T03:27:28;57.93;;;39.07;;
2610;SDS011;5612;51.134;17.058;2023-04-06T03:29:57;49.43;;;34.97;;
2610;SDS011;5612;51.134;17.058;2023-04-06T03:32:25;47.93;;;37.10;;
2610;SDS011;5612;51.134;17.058;2023-04-06T03:34:54;48.53;;;37.47;;
2610;SDS011;5612;51.134;17.058;2023-04-06T03:37:22;56.80;;;44.77;;
2610;SDS011;5612;51.134;17.058;2023-04-06T03:39:53;47.97;;;36.30;;
2610;SDS011;5612;51.134;17.058;2023-04-06T03:42:22;50.87;;;36.37;;
2610;SDS011;5612;51.134;17.058;2023-04-06T03:44:50;53.87;;;38.80;;
2610;SDS011;5612;51.134;17.058;2023-04-06T03:47:19;56.50;;;43.97;;
2610;SDS011;5612;51.134;17.058;2023-04-06T03:49:48;47.83;;;37.77;;
2610;SDS011;5612;51.134;17.058;2023-04-06T03:52:19;60.53;;;47.77;;
2610;SDS011;5612;51.134;17.058;2023-04-06T03:54:49;45.27;;;34.87;;
2610;SDS011;5612;51.134;17.058;2023-04-06T03:57:19;55.37;;;43.80;;
2610;SDS011;5612;51.134;17.058;2023-04-06T03:59:48;49.83;;;36.70;;
2610;SDS011;5612;51.134;17.058;2023-04-06T04:02:17;52.17;;;35.07;;
2610;SDS011;5612;51.134;17.058;2023-04-06T04:04:45;50.50;;;34.73;;
2610;SDS011;5612;51.134;17.058;2023-04-06T04:07:14;41.80;;;34.37;;
2610;SDS011;5612;51.134;17.058;2023-04-06T04:09:43;48.00;;;33.47;;
2610;SDS011;5612;51.134;17.058;2023-04-06T04:12:11;45.07;;;34.70;;
2610;SDS011;5612;51.134;17.058;2023-04-06T04:14:42;50.10;;;35.97;;
2610;SDS011;5612;51.134;17.058;2023-04-06T04:17:11;54.60;;;37.07;;
2610;SDS011;5612;51.134;17.058;2023-04-06T04:19:40;54.83;;;44.37;;
2610;SDS011;5612;51.134;17.058;2023-04-06T04:22:08;54.57;;;42.30;;
2610;SDS011;5612;51.134;17.058;2023-04-06T04:24:37;53.33;;;38.20;;
2610;SDS011;5612;51.134;17.058;2023-04-06T04:27:06;48.90;;;35.47;;
2610;SDS011;5612;51.134;17.058;2023-04-06T04:29:34;44.90;;;35.10;;
2610;SDS011;5612;51.134;17.058;2023-04-06T04:32:04;50.40;;;37.07;;
2610;SDS011;5612;51.134;17.058;2023-04-06T04:34:33;50.77;;;38.60;;
2610;SDS011;5612;51.134;17.058;2023-04-06T04:37:02;52.13;;;37.80;;
2610;SDS011;5612;51.134;17.058;2023-04-06T04:39:34;54.20;;;39.80;;
2610;SDS011;5612;51.134;17.058;2023-04-06T04:42:02;75.67;;;37.03;;
2610;SDS011;5612;51.134;17.058;2023-04-06T04:44:34;63.23;;;48.20;;
2610;SDS011;5612;51.134;17.058;2023-04-06T04:47:02;54.23;;;44.60;;
2610;SDS011;5612;51.134;17.058;2023-04-06T04:49:33;54.70;;;40.03;;
2610;SDS011;5612;51.134;17.058;2023-04-06T04:52:01;55.10;;;46.17;;
2610;SDS011;5612;51.134;17.058;2023-04-06T04:54:30;56.50;;;38.80;;
2610;SDS011;5612;51.134;17.058;2023-04-06T04:56:59;53.83;;;38.17;;
2610;SDS011;5612;51.134;17.058;2023-04-06T04:59:27;53.17;;;39.70;;
2610;SDS011;5612;51.134;17.058;2023-04-06T05:01:57;56.50;;;45.47;;
2610;SDS011;5612;51.134;17.058;2023-04-06T05:04:27;47.50;;;38.40;;
2610;SDS011;5612;51.134;17.058;2023-04-06T05:07:03;62.73;;;42.30;;
2610;SDS011;5612;51.134;17.058;2023-04-06T05:09:32;66.43;;;45.17;;
2610;SDS011;5612;51.134;17.058;2023-04-06T05:12:01;71.50;;;45.97;;
2610;SDS011;5612;51.134;17.058;2023-04-06T05:14:30;63.00;;;46.17;;
2610;SDS011;5612;51.134;17.058;2023-04-06T05:16:58;66.17;;;46.50;;
2610;SDS011;5612;51.134;17.058;2023-04-06T05:19:29;67.30;;;47.43;;
2610;SDS011;5612;51.134;17.058;2023-04-06T05:21:57;63.27;;;45.90;;
2610;SDS011;5612;51.134;17.058;2023-04-06T05:24:26;62.57;;;46.50;;
2610;SDS011;5612;51.134;17.058;2023-04-06T05:26:55;69.27;;;46.00;;
2610;SDS011;5612;51.134;17.058;2023-04-06T05:29:23;59.43;;;46.10;;
2610;SDS011;5612;51.134;17.058;2023-04-06T05:31:52;63.83;;;47.37;;
2610;SDS011;5612;51.134;17.058;2023-04-06T05:34:21;70.27;;;48.80;;
2610;SDS011;5612;51.134;17.058;2023-04-06T05:36:51;78.27;;;53.03;;
2610;SDS011;5612;51.134;17.058;2023-04-06T05:39:20;84.93;;;60.13;;
2610;SDS011;5612;51.134;17.058;2023-04-06T05:41:49;84.73;;;58.60;;
2610;SDS011;5612;51.134;17.058;2023-04-06T05:44:18;89.03;;;65.50;;
2610;SDS011;5612;51.134;17.058;2023-04-06T05:46:46;91.10;;;65.97;;
2610;SDS011;5612;51.134;17.058;2023-04-06T05:49:15;95.97;;;71.90;;
2610;SDS011;5612;51.134;17.058;2023-04-06T05:51:44;103.20;;;75.40;;
2610;SDS011;5612;51.134;17.058;2023-04-06T05:54:14;106.17;;;75.37;;
2610;SDS011;5612;51.134;17.058;2023-04-06T05:56:43;97.73;;;73.13;;
2610;SDS011;5612;51.134;17.058;2023-04-06T05:59:14;93.73;;;69.30;;
2610;SDS011;5612;51.134;17.058;2023-04-06T06:01:43;78.77;;;59.90;;
2610;SDS011;5612;51.134;17.058;2023-04-06T06:04:12;69.97;;;53.47;;
2610;SDS011;5612;51.134;17.058;2023-04-06T06:06:40;55.27;;;45.90;;
2610;SDS011;5612;51.134;17.058;2023-04-06T06:09:09;54.63;;;41.50;;
2610;SDS011;5612;51.134;17.058;2023-04-06T06:11:39;53.40;;;40.63;;
2610;SDS011;5612;51.134;17.058;2023-04-06T06:14:08;49.37;;;41.97;;
2610;SDS011;5612;51.134;17.058;2023-04-06T06:16:37;55.70;;;42.80;;
2610;SDS011;5612;51.134;17.058;2023-04-06T06:19:06;55.57;;;40.57;;
2610;SDS011;5612;51.134;17.058;2023-04-06T06:21:34;56.60;;;43.00;;
2610;SDS011;5612;51.134;17.058;2023-04-06T06:24:03;52.10;;;39.60;;
2610;SDS011;5612;51.134;17.058;2023-04-06T06:26:32;44.67;;;36.13;;
2610;SDS011;5612;51.134;17.058;2023-04-06T06:29:04;49.90;;;40.47;;
2610;SDS011;5612;51.134;17.058;2023-04-06T06:31:34;50.67;;;41.47;;
2610;SDS011;5612;51.134;17.058;2023-04-06T06:34:03;52.50;;;40.13;;
2610;SDS011;5612;51.134;17.058;2023-04-06T06:36:32;43.90;;;38.17;;
2610;SDS011;5612;51.134;17.058;2023-04-06T06:39:01;41.90;;;37.33;;
2610;SDS011;5612;51.134;17.058;2023-04-06T06:41:30;46.97;;;39.40;;
2610;SDS011;5612;51.134;17.058;2023-04-06T06:43:59;48.63;;;38.97;;
2610;SDS011;5612;51.134;17.058;2023-04-06T06:46:30;45.23;;;36.53;;
2610;SDS011;5612;51.134;17.058;2023-04-06T06:48:59;40.03;;;35.40;;
2610;SDS011;5612;51.134;17.058;2023-04-06T06:51:28;43.83;;;38.33;;
2610;SDS011;5612;51.134;17.058;2023-04-06T06:53:56;49.77;;;37.70;;
2610;SDS011;5612;51.134;17.058;2023-04-06T06:56:25;41.63;;;35.17;;
2610;SDS011;5612;51.134;17.058;2023-04-06T06:58:54;39.87;;;35.37;;
2610;SDS011;5612;51.134;17.058;2023-04-06T07:01:23;39.67;;;35.87;;
2610;SDS011;5612;51.134;17.058;2023-04-06T07:03:53;38.63;;;34.60;;
2610;SDS011;5612;51.134;17.058;2023-04-06T07:06:22;40.93;;;36.53;;
2610;SDS011;5612;51.134;17.058;2023-04-06T07:08:51;37.30;;;33.60;;
2610;SDS011;5612;51.134;17.058;2023-04-06T07:11:20;41.10;;;36.67;;
2610;SDS011;5612;51.134;17.058;2023-04-06T07:13:48;41.47;;;37.27;;
2610;SDS011;5612;51.134;17.058;2023-04-06T07:16:17;43.83;;;37.80;;
2610;SDS011;5612;51.134;17.058;2023-04-06T07:18:46;39.23;;;35.37;;
2610;SDS011;5612;51.134;17.058;2023-04-06T07:21:17;37.13;;;33.37;;
2610;SDS011;5612;51.134;17.058;2023-04-06T07:23:48;37.43;;;33.67;;
2610;SDS011;5612;51.134;17.058;2023-04-06T07:26:17;34.70;;;31.20;;
2610;SDS011;5612;51.134;17.058;2023-04-06T07:28:46;31.47;;;28.43;;
2610;SDS011;5612;51.134;17.058;2023-04-06T07:31:15;29.63;;;26.73;;
2610;SDS011;5612;51.134;17.058;2023-04-06T07:33:43;31.77;;;28.70;;
2610;SDS011;5612;51.134;17.058;2023-04-06T07:36:13;29.07;;;26.20;;
2610;SDS011;5612;51.134;17.058;2023-04-06T07:38:43;27.10;;;24.47;;
2610;SDS011;5612;51.134;17.058;2023-04-06T07:41:14;28.23;;;25.60;;
2610;SDS011;5612;51.134;17.058;2023-04-06T07:43:43;28.30;;;25.37;;
2610;SDS011;5612;51.134;17.058;2023-04-06T07:46:12;26.43;;;23.93;;
2610;SDS011;5612;51.134;17.058;2023-04-06T07:48:41;23.13;;;20.77;;
2610;SDS011;5612;51.134;17.058;2023-04-06T07:51:09;23.10;;;20.70;;
2610;SDS011;5612;51.134;17.058;2023-04-06T07:53:40;17.97;;;16.27;;
2610;SDS011;5612;51.134;17.058;2023-04-06T07:56:11;17.23;;;15.53;;
2610;SDS011;5612;51.134;17.058;2023-04-06T07:58:40;17.43;;;15.87;;
2610;SDS011;5612;51.134;17.058;2023-04-06T08:01:09;19.97;;;17.83;;
2610;SDS011;5612;51.134;17.058;2023-04-06T08:03:37;15.13;;;13.83;;
2610;SDS011;5612;51.134;17.058;2023-04-06T08:06:06;14.93;;;13.63;;
2610;SDS011;5612;51.134;17.058;2023-04-06T08:08:35;12.87;;;11.67;;
2610;SDS011;5612;51.134;17.058;2023-04-06T08:11:04;18.03;;;16.20;;
2610;SDS011;5612;51.134;17.058;2023-04-06T08:13:34;16.83;;;15.23;;
2610;SDS011;5612;51.134;17.058;2023-04-06T08:16:04;18.90;;;17.00;;
2610;SDS011;5612;51.134;17.058;2023-04-06T08:18:33;14.50;;;13.07;;
2610;SDS011;5612;51.134;17.058;2023-04-06T08:21:02;13.60;;;12.50;;
2610;SDS011;5612;51.134;17.058;2023-04-06T08:23:30;14.60;;;13.40;;
2610;SDS011;5612;51.134;17.058;2023-04-06T08:25:59;13.40;;;12.20;;
2610;SDS011;5612;51.134;17.058;2023-04-06T08:28:28;13.43;;;12.33;;
2610;SDS011;5612;51.134;17.058;2023-04-06T08:30:58;12.07;;;11.00;;
2610;SDS011;5612;51.134;17.058;2023-04-06T08:33:27;12.50;;;11.50;;
2610;SDS011;5612;51.134;17.058;2023-04-06T08:35:55;11.87;;;10.87;;
2610;SDS011;5612;51.134;17.058;2023-04-06T08:38:25;13.20;;;12.10;;
2610;SDS011;5612;51.134;17.058;2023-04-06T08:40:54;11.97;;;10.80;;
2610;SDS011;5612;51.134;17.058;2023-04-06T08:43:22;14.30;;;13.00;;
2610;SDS011;5612;51.134;17.058;2023-04-06T08:45:52;14.43;;;13.13;;
2610;SDS011;5612;51.134;17.058;2023-04-06T08:48:23;14.23;;;12.93;;
2610;SDS011;5612;51.134;17.058;2023-04-06T08:50:52;14.63;;;13.40;;
2610;SDS011;5612;51.134;17.058;2023-04-06T08:53:22;14.77;;;13.23;;
2610;SDS011;5612;51.134;17.058;2023-04-06T08:55:51;16.40;;;14.90;;
2610;SDS011;5612;51.134;17.058;2023-04-06T08:58:20;16.20;;;14.80;;
2610;SDS011;5612;51.134;17.058;2023-04-06T09:01:05;15.60;;;14.10;;
2610;SDS011;5612;51.134;17.058;2023-04-06T09:03:38;15.10;;;13.70;;
2610;SDS011;5612;51.134;17.058;2023-04-06T09:06:08;14.50;;;13.33;;
2610;SDS011;5612;51.134;17.058;2023-04-06T09:08:38;13.57;;;12.30;;
2610;SDS011;5612;51.134;17.058;2023-04-06T09:11:08;13.20;;;11.90;;
2610;SDS011;5612;51.134;17.058;2023-04-06T09:13:47;12.73;;;11.63;;
2610;SDS011;5612;51.134;17.058;2023-04-06T09:16:17;11.40;;;10.33;;
2610;SDS011;5612;51.134;17.058;2023-04-06T09:18:48;10.63;;;9.70;;
2610;SDS011;5612;51.134;17.058;2023-04-06T09:21:18;9.00;;;8.10;;
2610;SDS011;5612;51.134;17.058;2023-04-06T09:23:57;8.97;;;8.17;;
2610;SDS011;5612;51.134;17.058;2023-04-06T09:26:27;8.43;;;7.73;;
2610;SDS011;5612;51.134;17.058;2023-04-06T09:28:57;10.33;;;9.50;;
2610;SDS011;5612;51.134;17.058;2023-04-06T09:31:28;9.30;;;8.50;;
2610;SDS011;5612;51.134;17.058;2023-04-06T09:34:01;8.80;;;8.20;;
2610;SDS011;5612;51.134;17.058;2023-04-06T09:36:30;8.73;;;8.00;;
2610;SDS011;5612;51.134;17.058;2023-04-06T09:39:00;9.20;;;8.50;;
2610;SDS011;5612;51.134;17.058;2023-04-06T09:41:31;8.17;;;7.57;;
2610;SDS011;5612;51.134;17.058;2023-04-06T09:44:01;7.53;;;6.93;;
2610;SDS011;5612;51.134;17.058;2023-04-06T09:46:32;8.30;;;7.70;;
2610;SDS011;5612;51.134;17.058;2023-04-06T09:49:22;9.37;;;8.50;;
2610;SDS011;5612;51.134;17.058;2023-04-06T09:51:53;10.40;;;9.50;;
2610;SDS011;5612;51.134;17.058;2023-04-06T09:54:25;10.17;;;9.30;;
2610;SDS011;5612;51.134;17.058;2023-04-06T09:57:00;8.67;;;7.97;;
2610;SDS011;5612;51.134;17.058;2023-04-06T09:59:40;9.40;;;8.57;;
2610;SDS011;5612;51.134;17.058;2023-04-06T10:02:15;8.87;;;8.00;;
2610;SDS011;5612;51.134;17.058;2023-04-06T10:04:52;8.63;;;7.73;;
2610;SDS011;5612;51.134;17.058;2023-04-06T10:07:24;9.03;;;8.13;;
2610;SDS011;5612;51.134;17.058;2023-04-06T10:09:55;9.73;;;8.73;;
2610;SDS011;5612;51.134;17.058;2023-04-06T10:12:26;8.73;;;8.03;;
2610;SDS011;5612;51.134;17.058;2023-04-06T10:14:56;8.93;;;8.13;;
2610;SDS011;5612;51.134;17.058;2023-04-06T10:17:26;8.03;;;7.33;;
2610;SDS011;5612;51.134;17.058;2023-04-06T10:19:59;9.27;;;8.57;;
2610;SDS011;5612;51.134;17.058;2023-04-06T10:22:33;8.37;;;7.70;;
2610;SDS011;5612;51.134;17.058;2023-04-06T10:25:07;8.50;;;7.70;;
2610;SDS011;5612;51.134;17.058;2023-04-06T10:27:37;8.97;;;7.73;;
2610;SDS011;5612;51.134;17.058;2023-04-06T10:30:07;7.40;;;6.60;;
2610;SDS011;5612;51.134;17.058;2023-04-06T10:32:37;6.60;;;6.20;;
2610;SDS011;5612;51.134;17.058;2023-04-06T10:35:09;6.97;;;6.40;;
2610;SDS011;5612;51.134;17.058;2023-04-06T10:37:49;7.10;;;6.60;;
2610;SDS011;5612;51.134;17.058;2023-04-06T10:40:21;7.27;;;6.67;;
2610;SDS011;5612;51.134;17.058;2023-04-06T10:42:54;6.93;;;6.27;;
2610;SDS011;5612;51.134;17.058;2023-04-06T10:45:24;6.50;;;6.00;;
2610;SDS011;5612;51.134;17.058;2023-04-06T10:47:55;5.97;;;5.53;;
2610;SDS011;5612;51.134;17.058;2023-04-06T10:50:27;6.40;;;6.00;;
2610;SDS011;5612;51.134;17.058;2023-04-06T10:52:58;6.80;;;6.30;;
2610;SDS011;5612;51.134;17.058;2023-04-06T10:55:29;7.77;;;7.07;;
2610;SDS011;5612;51.134;17.058;2023-04-06T10:57:59;6.63;;;6.13;;
2610;SDS011;5612;51.134;17.058;2023-04-06T11:00:28;8.43;;;7.83;;
2610;SDS011;5612;51.134;17.058;2023-04-06T11:03:14;8.93;;;8.33;;
2610;SDS011;5612;51.134;17.058;2023-04-06T11:05:46;6.90;;;6.40;;
2610;SDS011;5612;51.134;17.058;2023-04-06T11:08:24;12.67;;;7.47;;
2610;SDS011;5612;51.134;17.058;2023-04-06T11:11:04;7.07;;;6.37;;
2610;SDS011;5612;51.134;17.058;2023-04-06T11:13:39;8.83;;;8.23;;
2610;SDS011;5612;51.134;17.058;2023-04-06T11:16:14;31.10;;;27.90;;
2610;SDS011;5612;51.134;17.058;2023-04-06T11:18:51;37.70;;;31.30;;
2610;SDS011;5612;51.134;17.058;2023-04-06T11:21:34;15.10;;;13.63;;
2610;SDS011;5612;51.134;17.058;2023-04-06T11:24:07;8.10;;;7.50;;
2610;SDS011;5612;51.134;17.058;2023-04-06T11:26:39;8.90;;;8.20;;
2610;SDS011;5612;51.134;17.058;2023-04-06T11:29:10;8.50;;;7.83;;
2610;SDS011;5612;51.134;17.058;2023-04-06T11:31:41;8.37;;;7.50;;
2610;SDS011;5612;51.134;17.058;2023-04-06T11:34:16;9.60;;;8.77;;
2610;SDS011;5612;51.134;17.058;2023-04-06T11:36:49;8.40;;;7.70;;
2610;SDS011;5612;51.134;17.058;2023-04-06T11:39:24;7.63;;;7.13;;
2610;SDS011;5612;51.134;17.058;2023-04-06T11:41:57;7.70;;;7.00;;
2610;SDS011;5612;51.134;17.058;2023-04-06T11:44:32;9.00;;;8.20;;
2610;SDS011;5612;51.134;17.058;2023-04-06T11:47:04;8.43;;;7.73;;
2610;SDS011;5612;51.134;17.058;2023-04-06T11:49:36;11.13;;;10.00;;
2610;SDS011;5612;51.134;17.058;2023-04-06T11:52:15;10.40;;;9.50;;
2610;SDS011;5612;51.134;17.058;2023-04-06T11:54:46;8.87;;;8.07;;
2610;SDS011;5612;51.134;17.058;2023-04-06T11:57:17;8.50;;;7.80;;
2610;SDS011;5612;51.134;17.058;2023-04-06T11:59:48;11.03;;;8.70;;
2610;SDS011;5612;51.134;17.058;2023-04-06T12:02:17;10.37;;;9.57;;
2610;SDS011;5612;51.134;17.058;2023-04-06T12:04:47;10.77;;;9.80;;
2610;SDS011;5612;51.134;17.058;2023-04-06T12:07:19;9.20;;;8.40;;
2610;SDS011;5612;51.134;17.058;2023-04-06T12:09:49;11.10;;;8.53;;
2610;SDS011;5612;51.134;17.058;2023-04-06T12:12:18;9.03;;;8.23;;
2610;SDS011;5612;51.134;17.058;2023-04-06T12:14:48;9.40;;;8.43;;
2610;SDS011;5612;51.134;17.058;2023-04-06T12:17:18;9.53;;;8.87;;
2610;SDS011;5612;51.134;17.058;2023-04-06T12:19:48;9.17;;;8.43;;
2610;SDS011;5612;51.134;17.058;2023-04-06T12:22:21;9.03;;;8.33;;
2610;SDS011;5612;51.134;17.058;2023-04-06T12:24:51;9.10;;;8.40;;
2610;SDS011;5612;51.134;17.058;2023-04-06T12:27:20;11.63;;;10.53;;
2610;SDS011;5612;51.134;17.058;2023-04-06T12:29:50;10.97;;;10.10;;
2610;SDS011;5612;51.134;17.058;2023-04-06T12:32:20;10.50;;;9.70;;
2610;SDS011;5612;51.134;17.058;2023-04-06T12:34:51;9.93;;;9.03;;
2610;SDS011;5612;51.134;17.058;2023-04-06T12:37:23;9.40;;;8.60;;
2610;SDS011;5612;51.134;17.058;2023-04-06T12:39:53;11.40;;;10.50;;
2610;SDS011;5612;51.134;17.058;2023-04-06T12:42:23;8.77;;;8.17;;
2610;SDS011;5612;51.134;17.058;2023-04-06T12:44:53;8.70;;;8.03;;
2610;SDS011;5612;51.134;17.058;2023-04-06T12:47:23;10.20;;;9.40;;
2610;SDS011;5612;51.134;17.058;2023-04-06T12:49:54;10.27;;;9.27;;
2610;SDS011;5612;51.134;17.058;2023-04-06T12:52:26;8.57;;;7.87;;
2610;SDS011;5612;51.134;17.058;2023-04-06T12:54:57;8.80;;;8.00;;
2610;SDS011;5612;51.134;17.058;2023-04-06T12:57:27;8.70;;;8.00;;
2610;SDS011;5612;51.134;17.058;2023-04-06T12:59:58;8.23;;;7.60;;
2610;SDS011;5612;51.134;17.058;2023-04-06T13:02:27;7.77;;;7.17;;
2610;SDS011;5612;51.134;17.058;2023-04-06T13:04:58;7.57;;;7.03;;
2610;SDS011;5612;51.134;17.058;2023-04-06T13:07:30;7.30;;;6.70;;
2610;SDS011;5612;51.134;17.058;2023-04-06T13:10:00;7.37;;;6.77;;
2610;SDS011;5612;51.134;17.058;2023-04-06T13:12:29;7.77;;;7.07;;
2610;SDS011;5612;51.134;17.058;2023-04-06T13:15:00;8.50;;;7.73;;
2610;SDS011;5612;51.134;17.058;2023-04-06T13:17:29;8.33;;;7.63;;
2610;SDS011;5612;51.134;17.058;2023-04-06T13:19:59;7.23;;;6.50;;
2610;SDS011;5612;51.134;17.058;2023-04-06T13:22:32;7.07;;;6.57;;
2610;SDS011;5612;51.134;17.058;2023-04-06T13:25:02;7.40;;;6.80;;
2610;SDS011;5612;51.134;17.058;2023-04-06T13:27:33;8.40;;;7.70;;
2610;SDS011;5612;51.134;17.058;2023-04-06T13:30:03;8.40;;;7.70;;
2610;SDS011;5612;51.134;17.058;2023-04-06T13:32:34;9.63;;;6.97;;
2610;SDS011;5612;51.134;17.058;2023-04-06T13:35:04;6.63;;;6.10;;
2610;SDS011;5612;51.134;17.058;2023-04-06T13:37:36;8.10;;;7.50;;
2610;SDS011;5612;51.134;17.058;2023-04-06T13:40:07;7.93;;;7.33;;
2610;SDS011;5612;51.134;17.058;2023-04-06T13:42:37;7.70;;;6.90;;
2610;SDS011;5612;51.134;17.058;2023-04-06T13:45:08;9.63;;;8.83;;
2610;SDS011;5612;51.134;17.058;2023-04-06T13:47:39;9.17;;;8.07;;
2610;SDS011;5612;51.134;17.058;2023-04-06T13:50:09;8.83;;;8.13;;
2610;SDS011;5612;51.134;17.058;2023-04-06T13:52:41;9.37;;;8.67;;
2610;SDS011;5612;51.134;17.058;2023-04-06T13:55:10;8.60;;;7.97;;
2610;SDS011;5612;51.134;17.058;2023-04-06T13:57:41;8.70;;;7.90;;
2610;SDS011;5612;51.134;17.058;2023-04-06T14:00:11;9.67;;;8.73;;
2610;SDS011;5612;51.134;17.058;2023-04-06T14:02:42;9.23;;;8.53;;
2610;SDS011;5612;51.134;17.058;2023-04-06T14:05:13;9.83;;;9.13;;
2610;SDS011;5612;51.134;17.058;2023-04-06T14:07:45;9.00;;;8.40;;
2610;SDS011;5612;51.134;17.058;2023-04-06T14:10:14;10.80;;;9.87;;
2610;SDS011;5612;51.134;17.058;2023-04-06T14:12:44;8.57;;;7.87;;
2610;SDS011;5612;51.134;17.058;2023-04-06T14:15:14;9.40;;;8.60;;
2610;SDS011;5612;51.134;17.058;2023-04-06T14:17:44;9.63;;;9.03;;
2610;SDS011;5612;51.134;17.058;2023-04-06T14:20:14;9.00;;;8.30;;
2610;SDS011;5612;51.134;17.058;2023-04-06T14:22:46;8.47;;;7.77;;
2610;SDS011;5612;51.134;17.058;2023-04-06T14:25:16;9.43;;;8.60;;
2610;SDS011;5612;51.134;17.058;2023-04-06T14:27:47;9.17;;;8.57;;
2610;SDS011;5612;51.134;17.058;2023-04-06T14:30:17;10.63;;;9.73;;
2610;SDS011;5612;51.134;17.058;2023-04-06T14:32:47;8.67;;;8.00;;
2610;SDS011;5612;51.134;17.058;2023-04-06T14:35:17;8.30;;;7.70;;
2610;SDS011;5612;51.134;17.058;2023-04-06T14:37:49;9.43;;;8.63;;
2610;SDS011;5612;51.134;17.058;2023-04-06T14:40:19;9.17;;;8.07;;
2610;SDS011;5612;51.134;17.058;2023-04-06T14:42:48;8.57;;;7.90;;
2610;SDS011;5612;51.134;17.058;2023-04-06T14:45:19;9.20;;;8.40;;
2610;SDS011;5612;51.134;17.058;2023-04-06T14:47:49;8.60;;;8.00;;
2610;SDS011;5612;51.134;17.058;2023-04-06T14:50:19;9.73;;;8.47;;
2610;SDS011;5612;51.134;17.058;2023-04-06T14:52:50;8.43;;;7.73;;
2610;SDS011;5612;51.134;17.058;2023-04-06T14:55:22;8.80;;;7.93;;
2610;SDS011;5612;51.134;17.058;2023-04-06T14:57:51;8.60;;;7.83;;
2610;SDS011;5612;51.134;17.058;2023-04-06T15:00:21;9.53;;;8.77;;